sensor_id;sensor_type;location;lat;lon;timestamp;pressure;altitude;pressure_sealevel;temperature;humidity
64354;BME280;50681;53.334;-6.536;2022-07-18T00:01:41;101208.94;;;20.99;100.00
64354;BME280;50681;53.334;-6.536;2022-07-18T00:04:06;101209.97;;;20.95;100.00
64354;BME280;50681;53.334;-6.536;2022-07-18T00:06:35;101212.81;;;20.98;100.00
64354;BME280;50681;53.334;-6.536;2022-07-18T00:09:01;101224.59;;;20.99;100.00
64354;BME280;50681;53.334;-6.536;2022-07-18T00:11:27;101228.72;;;20.93;100.00
64354;BME280;50681;53.334;-6.536;2022-07-18T00:13:52;101232.97;;;20.90;100.00
64354;BME280;50681;53.334;-6.536;2022-07-18T00:16:24;101231.81;;;20.91;100.00
64354;BME280;50681;53.334;-6.536;2022-07-18T00:18:49;101212.25;;;20.80;100.00
64354;BME280;50681;53.334;-6.536;2022-07-18T00:21:16;101227.81;;;20.89;100.00
64354;BME280;50681;53.334;-6.536;2022-07-18T00:23:42;101227.13;;;20.79;100.00
64354;BME280;50681;53.334;-6.536;2022-07-18T00:26:08;101231.81;;;20.79;100.00
64354;BME280;50681;53.334;-6.536;2022-07-18T00:28:34;101227.66;;;20.73;100.00
64354;BME280;50681;53.334;-6.536;2022-07-18T00:30:59;101216.47;;;20.65;100.00
64354;BME280;50681;53.334;-6.536;2022-07-18T00:33:25;101231.41;;;20.68;100.00
64354;BME280;50681;53.334;-6.536;2022-07-18T00:35:51;101220.91;;;20.58;100.00
64354;BME280;50681;53.334;-6.536;2022-07-18T00:38:17;101227.53;;;20.56;100.00
64354;BME280;50681;53.334;-6.536;2022-07-18T00:40:43;101223.06;;;20.52;100.00
64354;BME280;50681;53.334;-6.536;2022-07-18T00:43:08;101219.41;;;20.48;100.00
64354;BME280;50681;53.334;-6.536;2022-07-18T00:45:33;101230.38;;;20.48;100.00
64354;BME280;50681;53.334;-6.536;2022-07-18T00:48:07;101214.81;;;20.39;100.00
64354;BME280;50681;53.334;-6.536;2022-07-18T00:50:33;101211.94;;;20.36;100.00
64354;BME280;50681;53.334;-6.536;2022-07-18T00:52:58;101195.59;;;20.27;100.00
64354;BME280;50681;53.334;-6.536;2022-07-18T00:55:26;101197.75;;;20.21;100.00
64354;BME280;50681;53.334;-6.536;2022-07-18T00:57:52;101200.03;;;20.19;100.00
64354;BME280;50681;53.334;-6.536;2022-07-18T01:00:18;101190.78;;;20.11;100.00
64354;BME280;50681;53.334;-6.536;2022-07-18T01:03:02;101199.91;;;20.16;100.00
64354;BME280;50681;53.334;-6.536;2022-07-18T01:05:28;101192.84;;;20.15;100.00
64354;BME280;50681;53.334;-6.536;2022-07-18T01:07:54;101204.72;;;20.19;100.00
64354;BME280;50681;53.334;-6.536;2022-07-18T01:10:20;101189.03;;;20.07;100.00
64354;BME280;50681;53.334;-6.536;2022-07-18T01:12:45;101197.41;;;20.10;100.00
64354;BME280;50681;53.334;-6.536;2022-07-18T01:15:11;101188.56;;;20.05;100.00
64354;BME280;50681;53.334;-6.536;2022-07-18T01:17:39;101190.16;;;20.06;100.00
64354;BME280;50681;53.334;-6.536;2022-07-18T01:20:05;101183.66;;;19.98;100.00
64354;BME280;50681;53.334;-6.536;2022-07-18T01:22:30;101209.03;;;20.07;100.00
64354;BME280;50681;53.334;-6.536;2022-07-18T01:24:56;101189.81;;;19.95;100.00
64354;BME280;50681;53.334;-6.536;2022-07-18T01:27:21;101188.06;;;19.90;100.00
64354;BME280;50681;53.334;-6.536;2022-07-18T01:29:49;101194.47;;;19.94;100.00
64354;BME280;50681;53.334;-6.536;2022-07-18T01:32:15;101190.66;;;19.87;100.00
64354;BME280;50681;53.334;-6.536;2022-07-18T01:34:41;101187.91;;;19.87;100.00
64354;BME280;50681;53.334;-6.536;2022-07-18T01:37:08;101185.84;;;19.83;100.00
64354;BME280;50681;53.334;-6.536;2022-07-18T01:39:34;101198.25;;;19.90;100.00
64354;BME280;50681;53.334;-6.536;2022-07-18T01:42:04;101189.28;;;19.80;100.00
64354;BME280;50681;53.334;-6.536;2022-07-18T01:44:31;101178.53;;;19.75;100.00
64354;BME280;50681;53.334;-6.536;2022-07-18T01:46:56;101188.34;;;19.76;100.00
64354;BME280;50681;53.334;-6.536;2022-07-18T01:49:22;101185.81;;;19.71;100.00
64354;BME280;50681;53.334;-6.536;2022-07-18T01:51:50;101199.31;;;19.76;100.00
64354;BME280;50681;53.334;-6.536;2022-07-18T01:54:26;101189.22;;;19.68;100.00
64354;BME280;50681;53.334;-6.536;2022-07-18T01:56:52;101194.22;;;19.66;100.00
64354;BME280;50681;53.334;-6.536;2022-07-18T01:59:18;101189.28;;;19.59;100.00
64354;BME280;50681;53.334;-6.536;2022-07-18T02:01:43;101191.69;;;19.61;100.00
64354;BME280;50681;53.334;-6.536;2022-07-18T02:04:09;101182.09;;;19.54;100.00
64354;BME280;50681;53.334;-6.536;2022-07-18T02:06:35;101169.00;;;19.39;100.00
64354;BME280;50681;53.334;-6.536;2022-07-18T02:09:00;101170.13;;;19.38;100.00
64354;BME280;50681;53.334;-6.536;2022-07-18T02:11:25;101158.72;;;19.36;100.00
64354;BME280;50681;53.334;-6.536;2022-07-18T02:13:51;101164.38;;;19.31;100.00
64354;BME280;50681;53.334;-6.536;2022-07-18T02:16:16;101161.50;;;19.27;100.00
64354;BME280;50681;53.334;-6.536;2022-07-18T02:18:42;101163.09;;;19.28;100.00
64354;BME280;50681;53.334;-6.536;2022-07-18T02:21:09;101166.03;;;19.23;100.00
64354;BME280;50681;53.334;-6.536;2022-07-18T02:23:35;101151.09;;;19.20;100.00
64354;BME280;50681;53.334;-6.536;2022-07-18T02:26:01;101173.28;;;19.28;100.00
64354;BME280;50681;53.334;-6.536;2022-07-18T02:28:26;101154.50;;;19.17;100.00
64354;BME280;50681;53.334;-6.536;2022-07-18T02:30:52;101163.50;;;19.18;100.00
64354;BME280;50681;53.334;-6.536;2022-07-18T02:33:18;101170.25;;;19.20;100.00
64354;BME280;50681;53.334;-6.536;2022-07-18T02:35:43;101154.69;;;19.12;100.00
64354;BME280;50681;53.334;-6.536;2022-07-18T02:38:09;101161.78;;;19.13;100.00
64354;BME280;50681;53.334;-6.536;2022-07-18T02:40:35;101141.59;;;18.97;100.00
64354;BME280;50681;53.334;-6.536;2022-07-18T02:43:00;101151.34;;;19.06;100.00
64354;BME280;50681;53.334;-6.536;2022-07-18T02:45:26;101153.03;;;18.99;100.00
64354;BME280;50681;53.334;-6.536;2022-07-18T02:47:52;101141.59;;;18.97;100.00
64354;BME280;50681;53.334;-6.536;2022-07-18T02:50:18;101161.16;;;19.07;100.00
64354;BME280;50681;53.334;-6.536;2022-07-18T02:52:44;101147.19;;;19.00;100.00
64354;BME280;50681;53.334;-6.536;2022-07-18T02:55:11;101146.41;;;19.00;100.00
64354;BME280;50681;53.334;-6.536;2022-07-18T02:57:37;101138.38;;;18.94;100.00
64354;BME280;50681;53.334;-6.536;2022-07-18T03:00:09;101149.63;;;19.02;100.00
64354;BME280;50681;53.334;-6.536;2022-07-18T03:02:35;101146.41;;;19.00;100.00
64354;BME280;50681;53.334;-6.536;2022-07-18T03:05:01;101150.28;;;18.99;100.00
64354;BME280;50681;53.334;-6.536;2022-07-18T03:07:27;101142.56;;;18.92;100.00
64354;BME280;50681;53.334;-6.536;2022-07-18T03:09:53;101138.75;;;18.84;100.00
64354;BME280;50681;53.334;-6.536;2022-07-18T03:12:18;101139.69;;;18.88;100.00
64354;BME280;50681;53.334;-6.536;2022-07-18T03:14:44;101131.41;;;18.76;100.00
64354;BME280;50681;53.334;-6.536;2022-07-18T03:17:10;101123.69;;;18.69;100.00
64354;BME280;50681;53.334;-6.536;2022-07-18T03:19:35;101136.72;;;18.72;100.00
64354;BME280;50681;53.334;-6.536;2022-07-18T03:22:04;101145.53;;;18.78;100.00
64354;BME280;50681;53.334;-6.536;2022-07-18T03:24:30;101143.28;;;18.80;100.00
64354;BME280;50681;53.334;-6.536;2022-07-18T03:26:56;101119.22;;;18.64;100.00
64354;BME280;50681;53.334;-6.536;2022-07-18T03:29:21;101140.88;;;18.78;100.00
64354;BME280;50681;53.334;-6.536;2022-07-18T03:31:47;101141.06;;;18.73;100.00
64354;BME280;50681;53.334;-6.536;2022-07-18T03:34:13;101136.63;;;18.60;100.00
64354;BME280;50681;53.334;-6.536;2022-07-18T03:36:38;101136.91;;;18.67;100.00
64354;BME280;50681;53.334;-6.536;2022-07-18T03:39:04;101142.06;;;18.69;100.00
64354;BME280;50681;53.334;-6.536;2022-07-18T03:41:30;101132.16;;;18.55;100.00
64354;BME280;50681;53.334;-6.536;2022-07-18T03:43:56;101121.75;;;18.48;100.00
64354;BME280;50681;53.334;-6.536;2022-07-18T03:46:21;101122.22;;;18.50;100.00
64354;BME280;50681;53.334;-6.536;2022-07-18T03:48:47;101123.00;;;18.51;100.00
64354;BME280;50681;53.334;-6.536;2022-07-18T03:51:12;101122.06;;;18.47;100.00
64354;BME280;50681;53.334;-6.536;2022-07-18T03:53:38;101122.06;;;18.47;100.00
64354;BME280;50681;53.334;-6.536;2022-07-18T03:56:03;101112.78;;;18.39;100.00
64354;BME280;50681;53.334;-6.536;2022-07-18T03:58:29;101116.94;;;18.45;100.00
64354;BME280;50681;53.334;-6.536;2022-07-18T04:00:54;101120.16;;;18.39;100.00
64354;BME280;50681;53.334;-6.536;2022-07-18T04:03:20;101121.28;;;18.38;100.00
64354;BME280;50681;53.334;-6.536;2022-07-18T04:05:45;101111.00;;;18.34;100.00
64354;BME280;50681;53.334;-6.536;2022-07-18T04:08:11;101115.53;;;18.30;100.00
64354;BME280;50681;53.334;-6.536;2022-07-18T04:10:36;101111.53;;;18.28;100.00
64354;BME280;50681;53.334;-6.536;2022-07-18T04:13:05;101125.53;;;18.26;100.00
64354;BME280;50681;53.334;-6.536;2022-07-18T04:15:31;101108.69;;;18.15;100.00
64354;BME280;50681;53.334;-6.536;2022-07-18T04:17:56;101108.69;;;18.15;100.00
64354;BME280;50681;53.334;-6.536;2022-07-18T04:20:22;101102.78;;;18.04;100.00
64354;BME280;50681;53.334;-6.536;2022-07-18T04:22:58;101096.38;;;17.91;100.00
64354;BME280;50681;53.334;-6.536;2022-07-18T04:25:27;101098.13;;;17.87;100.00
64354;BME280;50681;53.334;-6.536;2022-07-18T04:27:53;101098.94;;;17.88;100.00
64354;BME280;50681;53.334;-6.536;2022-07-18T04:30:21;101089.00;;;17.74;100.00
64354;BME280;50681;53.334;-6.536;2022-07-18T04:32:48;101085.19;;;17.67;100.00
64354;BME280;50681;53.334;-6.536;2022-07-18T04:35:13;101072.81;;;17.60;100.00
64354;BME280;50681;53.334;-6.536;2022-07-18T04:37:39;101106.03;;;17.80;100.00
64354;BME280;50681;53.334;-6.536;2022-07-18T04:40:07;101077.94;;;17.62;100.00
64354;BME280;50681;53.334;-6.536;2022-07-18T04:42:33;101103.13;;;17.76;100.00
64354;BME280;50681;53.334;-6.536;2022-07-18T04:44:58;101093.50;;;17.70;100.00
64354;BME280;50681;53.334;-6.536;2022-07-18T04:47:28;101109.72;;;17.75;100.00
64354;BME280;50681;53.334;-6.536;2022-07-18T04:49:54;101088.56;;;17.63;100.00
64354;BME280;50681;53.334;-6.536;2022-07-18T04:52:20;101094.66;;;17.60;100.00
64354;BME280;50681;53.334;-6.536;2022-07-18T04:54:47;101079.22;;;17.56;100.00
64354;BME280;50681;53.334;-6.536;2022-07-18T04:57:13;101081.31;;;17.59;100.00
64354;BME280;50681;53.334;-6.536;2022-07-18T04:59:43;101095.28;;;17.66;100.00
64354;BME280;50681;53.334;-6.536;2022-07-18T05:02:09;101083.75;;;17.60;100.00
64354;BME280;50681;53.334;-6.536;2022-07-18T05:04:36;101102.81;;;17.69;100.00
64354;BME280;50681;53.334;-6.536;2022-07-18T05:07:02;101099.78;;;17.62;100.00
64354;BME280;50681;53.334;-6.536;2022-07-18T05:09:28;101100.75;;;17.66;100.00
64354;BME280;50681;53.334;-6.536;2022-07-18T05:11:54;101085.00;;;17.63;100.00
64354;BME280;50681;53.334;-6.536;2022-07-18T05:14:19;101100.91;;;17.70;100.00
64354;BME280;50681;53.334;-6.536;2022-07-18T05:16:46;101107.94;;;17.80;100.00
64354;BME280;50681;53.334;-6.536;2022-07-18T05:19:11;101113.41;;;17.80;100.00
64354;BME280;50681;53.334;-6.536;2022-07-18T05:21:37;101105.38;;;17.83;100.00
64354;BME280;50681;53.334;-6.536;2022-07-18T05:24:02;101086.91;;;17.80;100.00
64354;BME280;50681;53.334;-6.536;2022-07-18T05:26:28;101111.09;;;17.99;100.00
64354;BME280;50681;53.334;-6.536;2022-07-18T05:28:53;101094.75;;;17.90;100.00
64354;BME280;50681;53.334;-6.536;2022-07-18T05:31:19;101086.69;;;17.94;100.00
64354;BME280;50681;53.334;-6.536;2022-07-18T05:33:44;101076.41;;;17.91;100.00
64354;BME280;50681;53.334;-6.536;2022-07-18T05:36:10;101094.91;;;18.03;100.00
64354;BME280;50681;53.334;-6.536;2022-07-18T05:38:35;101080.59;;;17.97;100.00
64354;BME280;50681;53.334;-6.536;2022-07-18T05:41:01;101096.47;;;18.13;100.00
64354;BME280;50681;53.334;-6.536;2022-07-18T05:43:26;101082.50;;;18.05;100.00
64354;BME280;50681;53.334;-6.536;2022-07-18T05:45:52;101069.47;;;18.11;100.00
64354;BME280;50681;53.334;-6.536;2022-07-18T05:48:17;101084.03;;;18.24;100.00
64354;BME280;50681;53.334;-6.536;2022-07-18T05:50:43;101089.69;;;18.28;100.00
64354;BME280;50681;53.334;-6.536;2022-07-18T05:53:09;101092.97;;;18.42;100.00
64354;BME280;50681;53.334;-6.536;2022-07-18T05:55:35;101083.97;;;18.42;100.00
64354;BME280;50681;53.334;-6.536;2022-07-18T05:58:00;101076.22;;;18.44;100.00
64354;BME280;50681;53.334;-6.536;2022-07-18T06:00:26;101090.94;;;18.60;100.00
64354;BME280;50681;53.334;-6.536;2022-07-18T06:02:52;101086.41;;;18.64;100.00
64354;BME280;50681;53.334;-6.536;2022-07-18T06:05:18;101086.06;;;18.66;100.00
64354;BME280;50681;53.334;-6.536;2022-07-18T06:07:43;101094.31;;;18.87;100.00
64354;BME280;50681;53.334;-6.536;2022-07-18T06:10:09;101079.22;;;18.81;100.00
64354;BME280;50681;53.334;-6.536;2022-07-18T06:12:34;101081.88;;;18.90;100.00
64354;BME280;50681;53.334;-6.536;2022-07-18T06:15:00;101090.19;;;19.02;100.00
64354;BME280;50681;53.334;-6.536;2022-07-18T06:17:27;101082.41;;;19.13;100.00
64354;BME280;50681;53.334;-6.536;2022-07-18T06:19:56;101089.28;;;19.19;100.00
64354;BME280;50681;53.334;-6.536;2022-07-18T06:22:22;101100.06;;;19.37;100.00
64354;BME280;50681;53.334;-6.536;2022-07-18T06:24:48;101091.19;;;19.40;100.00
64354;BME280;50681;53.334;-6.536;2022-07-18T06:27:14;101084.69;;;19.45;100.00
64354;BME280;50681;53.334;-6.536;2022-07-18T06:29:39;101084.16;;;19.51;100.00
64354;BME280;50681;53.334;-6.536;2022-07-18T06:32:05;101087.16;;;19.59;100.00
64354;BME280;50681;53.334;-6.536;2022-07-18T06:34:31;101094.25;;;19.72;100.00
64354;BME280;50681;53.334;-6.536;2022-07-18T06:36:56;101083.09;;;19.77;100.00
64354;BME280;50681;53.334;-6.536;2022-07-18T06:39:22;101084.78;;;19.82;100.00
64354;BME280;50681;53.334;-6.536;2022-07-18T06:41:47;101086.06;;;19.85;100.00
64354;BME280;50681;53.334;-6.536;2022-07-18T06:44:13;101088.28;;;19.91;100.00
64354;BME280;50681;53.334;-6.536;2022-07-18T06:46:39;101079.47;;;19.86;100.00
64354;BME280;50681;53.334;-6.536;2022-07-18T06:49:04;101082.31;;;19.89;100.00
64354;BME280;50681;53.334;-6.536;2022-07-18T06:51:30;101089.09;;;20.04;100.00
64354;BME280;50681;53.334;-6.536;2022-07-18T06:53:56;101081.91;;;20.12;100.00
64354;BME280;50681;53.334;-6.536;2022-07-18T06:56:22;101075.28;;;20.13;100.00
64354;BME280;50681;53.334;-6.536;2022-07-18T06:58:47;101090.94;;;20.37;100.00
64354;BME280;50681;53.334;-6.536;2022-07-18T07:01:17;101105.56;;;20.54;100.00
64354;BME280;50681;53.334;-6.536;2022-07-18T07:03:43;101088.31;;;20.53;100.00
64354;BME280;50681;53.334;-6.536;2022-07-18T07:06:09;101098.94;;;20.67;100.00
64354;BME280;50681;53.334;-6.536;2022-07-18T07:08:34;101078.38;;;20.61;100.00
64354;BME280;50681;53.334;-6.536;2022-07-18T07:11:00;101103.06;;;20.86;100.00
64354;BME280;50681;53.334;-6.536;2022-07-18T07:13:26;101077.09;;;20.83;100.00
64354;BME280;50681;53.334;-6.536;2022-07-18T07:15:51;101068.59;;;20.89;100.00
64354;BME280;50681;53.334;-6.536;2022-07-18T07:18:17;101067.59;;;20.93;100.00
64354;BME280;50681;53.334;-6.536;2022-07-18T07:20:42;101095.78;;;21.06;100.00
64354;BME280;50681;53.334;-6.536;2022-07-18T07:23:08;101078.97;;;21.08;100.00
64354;BME280;50681;53.334;-6.536;2022-07-18T07:25:35;101074.47;;;21.15;100.00
64354;BME280;50681;53.334;-6.536;2022-07-18T07:28:01;101075.75;;;21.18;100.00
64354;BME280;50681;53.334;-6.536;2022-07-18T07:30:26;101085.69;;;21.39;100.00
64354;BME280;50681;53.334;-6.536;2022-07-18T07:32:52;101071.44;;;21.33;100.00
64354;BME280;50681;53.334;-6.536;2022-07-18T07:35:19;101059.81;;;21.40;100.00
64354;BME280;50681;53.334;-6.536;2022-07-18T07:37:48;101065.25;;;21.52;100.00
64354;BME280;50681;53.334;-6.536;2022-07-18T07:40:15;101065.38;;;21.56;100.00
64354;BME280;50681;53.334;-6.536;2022-07-18T07:42:40;101079.16;;;21.72;100.00
64354;BME280;50681;53.334;-6.536;2022-07-18T07:45:07;101063.91;;;21.75;100.00
64354;BME280;50681;53.334;-6.536;2022-07-18T07:47:34;101061.34;;;21.82;100.00
64354;BME280;50681;53.334;-6.536;2022-07-18T07:49:59;101057.53;;;21.86;100.00
64354;BME280;50681;53.334;-6.536;2022-07-18T07:52:25;101065.41;;;22.04;100.00
64354;BME280;50681;53.334;-6.536;2022-07-18T07:54:51;101065.16;;;22.09;100.00
64354;BME280;50681;53.334;-6.536;2022-07-18T07:57:16;101064.53;;;22.16;100.00
64354;BME280;50681;53.334;-6.536;2022-07-18T07:59:42;101059.28;;;22.27;100.00
64354;BME280;50681;53.334;-6.536;2022-07-18T08:02:08;101076.25;;;22.45;100.00
64354;BME280;50681;53.334;-6.536;2022-07-18T08:04:34;101068.50;;;22.51;100.00
64354;BME280;50681;53.334;-6.536;2022-07-18T08:07:00;101060.78;;;22.56;100.00
64354;BME280;50681;53.334;-6.536;2022-07-18T08:09:26;101052.31;;;22.65;100.00
64354;BME280;50681;53.334;-6.536;2022-07-18T08:11:51;101060.56;;;22.85;100.00
64354;BME280;50681;53.334;-6.536;2022-07-18T08:14:16;101051.69;;;22.92;100.00
64354;BME280;50681;53.334;-6.536;2022-07-18T08:16:42;101046.75;;;23.01;100.00
64354;BME280;50681;53.334;-6.536;2022-07-18T08:19:07;101047.81;;;23.16;100.00
64354;BME280;50681;53.334;-6.536;2022-07-18T08:21:33;101042.50;;;23.23;100.00
64354;BME280;50681;53.334;-6.536;2022-07-18T08:23:59;101022.75;;;23.21;100.00
64354;BME280;50681;53.334;-6.536;2022-07-18T08:26:24;101046.88;;;23.47;100.00
64354;BME280;50681;53.334;-6.536;2022-07-18T08:28:51;101043.88;;;23.56;100.00
64354;BME280;50681;53.334;-6.536;2022-07-18T08:31:16;101049.63;;;23.71;100.00
64354;BME280;50681;53.334;-6.536;2022-07-18T08:33:44;101047.00;;;23.78;100.00
64354;BME280;50681;53.334;-6.536;2022-07-18T08:36:09;101046.44;;;23.92;100.00
64354;BME280;50681;53.334;-6.536;2022-07-18T08:38:35;101047.41;;;24.00;100.00
64354;BME280;50681;53.334;-6.536;2022-07-18T08:41:00;101054.31;;;24.13;100.00
64354;BME280;50681;53.334;-6.536;2022-07-18T08:43:26;101040.09;;;24.11;100.00
64354;BME280;50681;53.334;-6.536;2022-07-18T08:46:01;101039.03;;;24.19;91.15
64354;BME280;50681;53.334;-6.536;2022-07-18T08:48:27;101041.56;;;24.32;95.48
64354;BME280;50681;53.334;-6.536;2022-07-18T08:50:53;101031.81;;;24.38;100.00
64354;BME280;50681;53.334;-6.536;2022-07-18T08:53:19;101032.75;;;24.49;94.83
64354;BME280;50681;53.334;-6.536;2022-07-18T08:55:45;101030.44;;;24.55;96.20
64354;BME280;50681;53.334;-6.536;2022-07-18T08:58:12;101044.81;;;24.68;96.84
64354;BME280;50681;53.334;-6.536;2022-07-18T09:00:39;101040.22;;;24.76;91.47
64354;BME280;50681;53.334;-6.536;2022-07-18T09:03:08;101020.00;;;24.72;85.64
64354;BME280;50681;53.334;-6.536;2022-07-18T09:05:33;101028.13;;;24.88;87.61
64354;BME280;50681;53.334;-6.536;2022-07-18T09:08:15;101009.66;;;24.92;86.89
64354;BME280;50681;53.334;-6.536;2022-07-18T09:13:14;101009.38;;;25.04;89.36
64354;BME280;50681;53.334;-6.536;2022-07-18T09:15:59;100995.72;;;25.19;75.08
64354;BME280;50681;53.334;-6.536;2022-07-18T09:21:27;100993.50;;;25.35;77.41
64354;BME280;50681;53.334;-6.536;2022-07-18T09:23:53;100979.34;;;25.41;77.38
64354;BME280;50681;53.334;-6.536;2022-07-18T09:26:42;100978.75;;;25.58;75.01
64354;BME280;50681;53.334;-6.536;2022-07-18T09:29:14;100983.53;;;25.65;73.42
64354;BME280;50681;53.334;-6.536;2022-07-18T09:31:48;100987.56;;;25.75;73.36
64354;BME280;50681;53.334;-6.536;2022-07-18T09:34:14;100986.03;;;25.85;73.49
64354;BME280;50681;53.334;-6.536;2022-07-18T09:36:54;100972.66;;;25.94;72.93
64354;BME280;50681;53.334;-6.536;2022-07-18T09:39:20;100971.94;;;26.04;73.85
64354;BME280;50681;53.334;-6.536;2022-07-18T09:41:46;100965.25;;;26.09;72.75
64354;BME280;50681;53.334;-6.536;2022-07-18T09:44:18;100975.66;;;26.26;70.53
64354;BME280;50681;53.334;-6.536;2022-07-18T09:47:01;100974.94;;;26.37;67.66
64354;BME280;50681;53.334;-6.536;2022-07-18T09:49:31;100979.31;;;26.49;69.08
64354;BME280;50681;53.334;-6.536;2022-07-18T09:52:05;100975.41;;;26.57;68.10
64354;BME280;50681;53.334;-6.536;2022-07-18T09:54:42;100973.84;;;26.67;61.63
64354;BME280;50681;53.334;-6.536;2022-07-18T09:57:09;100966.34;;;26.71;64.14
64354;BME280;50681;53.334;-6.536;2022-07-18T09:59:36;100947.34;;;26.69;63.63
64354;BME280;50681;53.334;-6.536;2022-07-18T10:02:05;100973.16;;;26.92;64.92
64354;BME280;50681;53.334;-6.536;2022-07-18T10:04:30;100962.09;;;26.99;61.98
64354;BME280;50681;53.334;-6.536;2022-07-18T10:06:55;100971.63;;;27.16;56.41
64354;BME280;50681;53.334;-6.536;2022-07-18T10:09:23;100972.00;;;27.14;58.41
64354;BME280;50681;53.334;-6.536;2022-07-18T10:11:50;100969.28;;;27.25;54.99
64354;BME280;50681;53.334;-6.536;2022-07-18T10:14:15;100977.22;;;27.49;53.29
64354;BME280;50681;53.334;-6.536;2022-07-18T10:16:41;100957.38;;;27.39;53.27
64354;BME280;50681;53.334;-6.536;2022-07-18T10:19:07;100977.22;;;27.63;50.33
64354;BME280;50681;53.334;-6.536;2022-07-18T10:21:33;100965.72;;;27.54;53.56
64354;BME280;50681;53.334;-6.536;2022-07-18T10:23:59;100969.31;;;27.76;50.85
64354;BME280;50681;53.334;-6.536;2022-07-18T10:26:27;100964.53;;;27.77;51.99
64354;BME280;50681;53.334;-6.536;2022-07-18T10:33:51;100964.50;;;27.91;52.33
64354;BME280;50681;53.334;-6.536;2022-07-18T10:36:18;100958.56;;;27.82;51.45
64354;BME280;50681;53.334;-6.536;2022-07-18T10:41:32;100962.50;;;27.95;48.47
64354;BME280;50681;53.334;-6.536;2022-07-18T10:43:58;100948.28;;;27.90;48.75
64354;BME280;50681;53.334;-6.536;2022-07-18T10:46:23;100971.63;;;27.99;49.89
64354;BME280;50681;53.334;-6.536;2022-07-18T10:48:50;100965.66;;;28.05;46.15
64354;BME280;50681;53.334;-6.536;2022-07-18T10:51:17;100953.78;;;28.00;43.76
64354;BME280;50681;53.334;-6.536;2022-07-18T10:53:57;100945.47;;;28.04;46.71
64354;BME280;50681;53.334;-6.536;2022-07-18T10:59:22;100962.06;;;28.29;44.52
64354;BME280;50681;53.334;-6.536;2022-07-18T11:01:52;100946.25;;;28.15;45.88
64354;BME280;50681;53.334;-6.536;2022-07-18T11:04:33;100959.66;;;28.31;44.16
64354;BME280;50681;53.334;-6.536;2022-07-18T11:07:17;100939.84;;;28.29;44.24
64354;BME280;50681;53.334;-6.536;2022-07-18T11:09:44;100936.69;;;28.31;45.47
64354;BME280;50681;53.334;-6.536;2022-07-18T11:12:29;100961.19;;;28.47;44.27
64354;BME280;50681;53.334;-6.536;2022-07-18T11:15:05;100956.41;;;28.55;44.64
64354;BME280;50681;53.334;-6.536;2022-07-18T11:18:03;100963.47;;;28.67;42.95
64354;BME280;50681;53.334;-6.536;2022-07-18T11:20:29;100956.81;;;28.57;44.42
64354;BME280;50681;53.334;-6.536;2022-07-18T11:22:55;100951.22;;;28.60;44.46
64354;BME280;50681;53.334;-6.536;2022-07-18T11:25:24;100954.38;;;28.63;44.94
64354;BME280;50681;53.334;-6.536;2022-07-18T11:27:49;100945.28;;;28.58;44.23
64354;BME280;50681;53.334;-6.536;2022-07-18T11:30:17;100944.47;;;28.61;43.74
64354;BME280;50681;53.334;-6.536;2022-07-18T11:32:42;100932.53;;;28.68;42.70
64354;BME280;50681;53.334;-6.536;2022-07-18T11:35:08;100949.16;;;28.83;43.26
64354;BME280;50681;53.334;-6.536;2022-07-18T11:37:38;100942.81;;;28.75;43.03
64354;BME280;50681;53.334;-6.536;2022-07-18T11:40:08;100931.69;;;28.82;43.24
64354;BME280;50681;53.334;-6.536;2022-07-18T11:42:37;100935.50;;;29.03;40.87
64354;BME280;50681;53.334;-6.536;2022-07-18T11:45:04;100933.91;;;29.06;42.10
64354;BME280;50681;53.334;-6.536;2022-07-18T11:47:29;100921.56;;;29.10;41.44
64354;BME280;50681;53.334;-6.536;2022-07-18T11:49:55;100943.19;;;29.37;41.60
64354;BME280;50681;53.334;-6.536;2022-07-18T11:52:22;100917.81;;;29.31;41.61
64354;BME280;50681;53.334;-6.536;2022-07-18T11:54:47;100922.13;;;29.43;41.23
64354;BME280;50681;53.334;-6.536;2022-07-18T11:57:13;100927.13;;;29.59;40.97
64354;BME280;50681;53.334;-6.536;2022-07-18T11:59:50;100929.94;;;29.56;41.56
64354;BME280;50681;53.334;-6.536;2022-07-18T12:02:16;100907.72;;;29.52;41.01
64354;BME280;50681;53.334;-6.536;2022-07-18T12:04:41;100919.44;;;29.74;40.59
64354;BME280;50681;53.334;-6.536;2022-07-18T12:09:48;100922.28;;;29.67;41.66
64354;BME280;50681;53.334;-6.536;2022-07-18T12:12:15;100924.09;;;29.85;40.88
64354;BME280;50681;53.334;-6.536;2022-07-18T12:14:41;100913.41;;;29.80;40.89
64354;BME280;50681;53.334;-6.536;2022-07-18T12:17:07;100919.66;;;29.91;40.84
64354;BME280;50681;53.334;-6.536;2022-07-18T12:19:38;100907.34;;;29.88;41.38
64354;BME280;50681;53.334;-6.536;2022-07-18T12:22:11;100898.91;;;29.99;40.16
64354;BME280;50681;53.334;-6.536;2022-07-18T12:37:59;100894.00;;;30.11;40.51
64354;BME280;50681;53.334;-6.536;2022-07-18T12:40:58;100897.25;;;30.05;40.95
64354;BME280;50681;53.334;-6.536;2022-07-18T12:43:30;100885.88;;;30.24;40.97
64354;BME280;50681;53.334;-6.536;2022-07-18T12:45:57;100866.53;;;30.44;40.83
64354;BME280;50681;53.334;-6.536;2022-07-18T12:48:27;100883.94;;;30.79;40.15
64354;BME280;50681;53.334;-6.536;2022-07-18T12:50:59;100892.22;;;31.10;39.78
64354;BME280;50681;53.334;-6.536;2022-07-18T12:53:26;100883.63;;;31.25;39.07
64354;BME280;50681;53.334;-6.536;2022-07-18T12:55:51;100882.00;;;31.27;39.65
64354;BME280;50681;53.334;-6.536;2022-07-18T12:58:17;100879.75;;;31.42;39.31
64354;BME280;50681;53.334;-6.536;2022-07-18T13:00:42;100884.75;;;31.51;38.75
64354;BME280;50681;53.334;-6.536;2022-07-18T13:03:09;100869.94;;;31.54;39.10
64354;BME280;50681;53.334;-6.536;2022-07-18T13:05:35;100871.75;;;31.64;39.70